createdAt,value
2018-05-06T00:00:54.669Z,1022.58
2018-05-06T00:01:54.764Z,1022.56
2018-05-06T00:02:54.710Z,1022.58
2018-05-06T00:03:54.732Z,1022.61
2018-05-06T00:04:54.753Z,1022.56
2018-05-06T00:05:54.774Z,1022.58
2018-05-06T00:06:54.797Z,1022.55
2018-05-06T00:08:54.837Z,1022.62
2018-05-06T00:09:54.859Z,1022.58
2018-05-06T00:10:54.885Z,1022.57
2018-05-06T00:11:54.901Z,1022.58
2018-05-06T00:12:54.922Z,1022.53
2018-05-06T00:13:54.943Z,1022.54
2018-05-06T00:14:54.965Z,1022.58
2018-05-06T00:15:54.984Z,1022.58
2018-05-06T00:16:55.012Z,1022.61
2018-05-06T00:17:55.028Z,1022.57
2018-05-06T00:18:55.049Z,1022.6
2018-05-06T00:19:55.070Z,1022.61
2018-05-06T00:20:55.090Z,1022.58
2018-05-06T00:21:55.112Z,1022.62
2018-05-06T00:22:55.133Z,1022.61
2018-05-06T00:23:55.154Z,1022.61
2018-05-06T00:24:55.175Z,1022.63
2018-05-06T00:25:55.196Z,1022.59
2018-05-06T00:26:55.217Z,1022.58
2018-05-06T00:27:55.241Z,1022.6
2018-05-06T00:28:55.258Z,1022.57
2018-05-06T00:29:55.280Z,1022.57
2018-05-06T00:30:55.301Z,1022.57
2018-05-06T00:31:55.321Z,1022.56
2018-05-06T00:32:55.342Z,1022.54
2018-05-06T00:33:55.364Z,1022.58
2018-05-06T00:34:55.386Z,1022.56
2018-05-06T00:35:55.405Z,1022.55
2018-05-06T00:36:55.426Z,1022.57
2018-05-06T00:37:55.445Z,1022.61
2018-05-06T00:38:55.466Z,1022.56
2018-05-06T00:40:55.510Z,1022.55
2018-05-06T00:41:55.531Z,1022.52
2018-05-06T00:42:55.552Z,1022.55
2018-05-06T00:43:55.572Z,1022.56
2018-05-06T00:44:55.594Z,1022.59
2018-05-06T00:45:55.615Z,1022.61
2018-05-06T00:46:55.635Z,1022.61
2018-05-06T00:47:55.656Z,1022.59
2018-05-06T00:48:55.677Z,1022.55
2018-05-06T00:49:55.697Z,1022.59
2018-05-06T00:50:55.719Z,1022.6
2018-05-06T00:51:55.739Z,1022.58
2018-05-06T00:52:55.759Z,1022.58
2018-05-06T00:53:55.781Z,1022.55
2018-05-06T00:54:55.806Z,1022.56
2018-05-06T00:56:55.845Z,1022.55
2018-05-06T00:57:55.864Z,1022.55
2018-05-06T00:58:55.887Z,1022.5
2018-05-06T00:59:55.905Z,1022.55
2018-05-06T01:00:55.926Z,1022.57
2018-05-06T01:01:55.948Z,1022.56
2018-05-06T01:02:55.969Z,1022.56
2018-05-06T01:03:55.991Z,1022.56
2018-05-06T01:04:56.011Z,1022.62
2018-05-06T01:05:56.057Z,1022.58
2018-05-06T01:06:56.054Z,1022.57
2018-05-06T01:07:56.074Z,1022.61
2018-05-06T01:08:56.094Z,1022.6
2018-05-06T01:09:56.115Z,1022.64
2018-05-06T01:10:56.136Z,1022.62
2018-05-06T01:12:56.177Z,1022.6
2018-05-06T01:13:56.198Z,1022.64
2018-05-06T01:14:56.222Z,1022.68
2018-05-06T01:15:56.238Z,1022.66
2018-05-06T01:16:56.260Z,1022.68
2018-05-06T01:17:56.281Z,1022.66
2018-05-06T01:18:56.302Z,1022.69
2018-05-06T01:19:56.322Z,1022.68
2018-05-06T01:20:56.343Z,1022.67
2018-05-06T01:21:56.365Z,1022.69
2018-05-06T01:22:56.383Z,1022.69
2018-05-06T01:23:56.404Z,1022.7
2018-05-06T01:24:56.425Z,1022.7
2018-05-06T01:25:56.446Z,1022.72
2018-05-06T01:26:56.465Z,1022.73
2018-05-06T01:28:56.508Z,1022.67
2018-05-06T01:29:56.529Z,1022.69
2018-05-06T01:30:56.548Z,1022.77
2018-05-06T01:31:56.568Z,1022.68
2018-05-06T01:32:56.591Z,1022.72
2018-05-06T01:33:56.610Z,1022.72
2018-05-06T01:34:56.631Z,1022.68
2018-05-06T01:35:56.650Z,1022.71
2018-05-06T01:36:56.672Z,1022.73
2018-05-06T01:37:56.701Z,1022.68
2018-05-06T01:38:56.713Z,1022.7
2018-05-06T01:39:56.735Z,1022.7
2018-05-06T01:40:56.755Z,1022.69
2018-05-06T01:41:56.776Z,1022.66
2018-05-06T01:43:56.822Z,1022.67
2018-05-06T01:44:56.837Z,1022.68
2018-05-06T01:45:56.859Z,1022.63
2018-05-06T01:46:56.879Z,1022.69
2018-05-06T01:47:56.900Z,1022.68
2018-05-06T01:48:56.919Z,1022.66
2018-05-06T01:49:56.939Z,1022.64
2018-05-06T01:50:56.961Z,1022.63
2018-05-06T01:51:56.981Z,1022.61
2018-05-06T01:52:57.004Z,1022.62
2018-05-06T01:53:57.022Z,1022.65
2018-05-06T01:54:57.043Z,1022.62
2018-05-06T01:55:57.063Z,1022.64
2018-05-06T01:56:57.087Z,1022.64
2018-05-06T01:57:57.155Z,1022.6
2018-05-06T01:58:57.125Z,1022.58
2018-05-06T01:59:57.144Z,1022.63
2018-05-06T02:00:57.164Z,1022.62
2018-05-06T02:01:57.187Z,1022.65
2018-05-06T02:02:57.206Z,1022.65
2018-05-06T02:03:57.226Z,1022.67
2018-05-06T02:04:57.297Z,1022.67
2018-05-06T02:05:57.268Z,1022.63
2018-05-06T02:06:57.288Z,1022.63
2018-05-06T02:07:57.308Z,1022.63
2018-05-06T02:08:57.332Z,1022.64
2018-05-06T02:09:57.350Z,1022.67
2018-05-06T02:10:57.370Z,1022.63
2018-05-06T02:11:57.389Z,1022.66
2018-05-06T02:12:57.410Z,1022.68
2018-05-06T02:13:57.433Z,1022.67
2018-05-06T02:15:57.475Z,1022.69
2018-05-06T02:16:57.492Z,1022.71
2018-05-06T02:17:57.511Z,1022.7
2018-05-06T02:18:57.532Z,1022.73
2018-05-06T02:19:57.553Z,1022.68
2018-05-06T02:20:57.575Z,1022.71
2018-05-06T02:21:57.593Z,1022.68
2018-05-06T02:22:57.613Z,1022.69
2018-05-06T02:23:57.635Z,1022.68
2018-05-06T02:24:57.654Z,1022.71
2018-05-06T02:25:57.674Z,1022.68
2018-05-06T02:26:57.697Z,1022.65
2018-05-06T02:27:57.714Z,1022.69
2018-05-06T02:28:57.735Z,1022.7
2018-05-06T02:29:57.754Z,1022.77
2018-05-06T02:31:57.797Z,1022.73
2018-05-06T02:32:57.817Z,1022.72
2018-05-06T02:33:57.837Z,1022.71
2018-05-06T02:34:57.857Z,1022.74
2018-05-06T02:35:57.876Z,1022.72
2018-05-06T02:36:57.898Z,1022.72
2018-05-06T02:37:57.918Z,1022.73
2018-05-06T02:38:57.938Z,1022.68
2018-05-06T02:39:57.959Z,1022.67
2018-05-06T02:40:58.079Z,1022.68
2018-05-06T02:41:58.002Z,1022.64
2018-05-06T02:42:58.022Z,1022.66
2018-05-06T02:43:58.038Z,1022.71
2018-05-06T02:44:58.059Z,1022.69
2018-05-06T02:45:58.078Z,1022.69
2018-05-06T02:47:58.120Z,1022.71
2018-05-06T02:48:58.144Z,1022.7
2018-05-06T02:49:58.161Z,1022.69
2018-05-06T02:50:58.181Z,1022.71
2018-05-06T02:51:58.200Z,1022.68
2018-05-06T02:52:58.221Z,1022.67
2018-05-06T02:53:58.241Z,1022.72
2018-05-06T02:54:58.260Z,1022.64
2018-05-06T02:55:58.282Z,1022.69
2018-05-06T02:56:58.300Z,1022.68
2018-05-06T02:57:58.321Z,1022.67
2018-05-06T02:58:58.341Z,1022.65
2018-05-06T02:59:58.361Z,1022.67
2018-05-06T03:00:58.382Z,1022.7
2018-05-06T03:01:58.401Z,1022.67
2018-05-06T03:03:58.443Z,1022.68
2018-05-06T03:04:58.462Z,1022.67
2018-05-06T03:05:58.483Z,1022.66
2018-05-06T03:06:58.503Z,1022.66
2018-05-06T03:07:58.523Z,1022.64
2018-05-06T03:08:58.542Z,1022.62
2018-05-06T03:09:58.564Z,1022.65
2018-05-06T03:10:58.583Z,1022.61
2018-05-06T03:11:58.607Z,1022.65
2018-05-06T03:12:58.623Z,1022.66
2018-05-06T03:13:58.643Z,1022.67
2018-05-06T03:14:58.664Z,1022.62
2018-05-06T03:15:58.686Z,1022.6
2018-05-06T03:16:58.704Z,1022.6
2018-05-06T03:18:58.745Z,1022.6
2018-05-06T03:19:58.765Z,1022.7
2018-05-06T03:20:58.785Z,1022.62
2018-05-06T03:21:58.805Z,1022.64
2018-05-06T03:22:58.827Z,1022.64
2018-05-06T03:23:58.845Z,1022.61
2018-05-06T03:24:58.881Z,1022.63
2018-05-06T03:25:58.884Z,1022.63
2018-05-06T03:26:58.905Z,1022.63
2018-05-06T03:27:58.925Z,1022.63
2018-05-06T03:28:58.944Z,1022.6
2018-05-06T03:29:58.965Z,1022.6
2018-05-06T03:30:58.988Z,1022.61
2018-05-06T03:31:59.005Z,1022.6
2018-05-06T03:32:59.026Z,1022.6
2018-05-06T03:33:59.044Z,1022.59
2018-05-06T03:34:59.065Z,1022.56
2018-05-06T03:35:59.085Z,1022.54
2018-05-06T03:36:59.112Z,1022.55
2018-05-06T03:37:59.126Z,1022.57
2018-05-06T03:38:59.144Z,1022.58
2018-05-06T03:39:59.165Z,1022.58
2018-05-06T03:40:59.185Z,1022.59
2018-05-06T03:41:59.205Z,1022.61
2018-05-06T03:42:59.225Z,1022.61
2018-05-06T03:43:59.245Z,1022.62
2018-05-06T03:44:59.264Z,1022.67
2018-05-06T03:45:59.287Z,1022.63
2018-05-06T03:46:59.305Z,1022.6
2018-05-06T03:47:59.325Z,1022.62
2018-05-06T03:48:59.344Z,1022.64
2018-05-06T03:50:59.426Z,1022.6
2018-05-06T03:51:59.406Z,1022.61
2018-05-06T03:52:59.424Z,1022.61
2018-05-06T03:53:59.445Z,1022.63
2018-05-06T03:54:59.465Z,1022.67
2018-05-06T03:55:59.485Z,1022.64
2018-05-06T03:56:59.505Z,1022.65
2018-05-06T03:57:59.525Z,1022.63
2018-05-06T03:58:59.545Z,1022.63
2018-05-06T03:59:59.565Z,1022.6
2018-05-06T04:00:59.585Z,1022.59
2018-05-06T04:01:59.605Z,1022.61
2018-05-06T04:02:59.625Z,1022.6
2018-05-06T04:03:59.645Z,1022.63
2018-05-06T04:04:59.664Z,1022.62
2018-05-06T04:06:59.706Z,1022.65
2018-05-06T04:07:59.724Z,1022.65
2018-05-06T04:08:59.749Z,1022.62
2018-05-06T04:09:59.765Z,1022.64
2018-05-06T04:10:59.790Z,1022.64
2018-05-06T04:11:59.804Z,1022.65
2018-05-06T04:12:59.826Z,1022.72
2018-05-06T04:13:59.846Z,1022.68
2018-05-06T04:14:59.865Z,1022.7
2018-05-06T04:15:59.886Z,1022.65
2018-05-06T04:16:59.906Z,1022.66
2018-05-06T04:17:59.925Z,1022.67
2018-05-06T04:18:59.946Z,1022.65
2018-05-06T04:19:59.967Z,1022.65
2018-05-06T04:20:59.986Z,1022.7
2018-05-06T04:23:00.028Z,1022.67
2018-05-06T04:24:00.047Z,1022.71
2018-05-06T04:25:00.069Z,1022.72
2018-05-06T04:26:00.093Z,1022.72
2018-05-06T04:27:00.113Z,1022.76
2018-05-06T04:28:00.129Z,1022.81
2018-05-06T04:29:00.152Z,1022.75
2018-05-06T04:30:00.174Z,1022.76
2018-05-06T04:31:00.189Z,1022.75
2018-05-06T04:32:00.210Z,1022.73
2018-05-06T04:33:00.229Z,1022.76
2018-05-06T04:34:00.252Z,1022.8
2018-05-06T04:35:00.359Z,1022.79
2018-05-06T04:36:00.296Z,1022.82
2018-05-06T04:37:00.310Z,1022.84
2018-05-06T04:39:00.355Z,1022.8
2018-05-06T04:40:00.373Z,1022.79
2018-05-06T04:41:00.391Z,1022.83
2018-05-06T04:42:00.412Z,1022.8
2018-05-06T04:43:00.433Z,1022.79
2018-05-06T04:44:00.453Z,1022.81
2018-05-06T04:45:00.474Z,1022.81
2018-05-06T04:46:00.494Z,1022.82
2018-05-06T04:47:00.515Z,1022.84
2018-05-06T04:48:00.534Z,1022.86
2018-05-06T04:49:00.555Z,1022.85
2018-05-06T04:50:00.576Z,1023.04
2018-05-06T04:51:00.597Z,1023.21
2018-05-06T04:52:00.618Z,1023.23
2018-05-06T04:54:00.663Z,1023.27
2018-05-06T04:55:00.690Z,1023.27
2018-05-06T04:56:00.705Z,1023.37
2018-05-06T04:57:00.730Z,1023.38
2018-05-06T04:58:00.751Z,1023.43
2018-05-06T04:59:00.776Z,1023.42
2018-05-06T05:00:00.799Z,1023.49
2018-05-06T05:01:00.823Z,1023.56
2018-05-06T05:02:00.847Z,1023.62
2018-05-06T05:03:00.873Z,1023.67
2018-05-06T05:04:00.898Z,1023.65
2018-05-06T05:05:00.924Z,1023.7
2018-05-06T05:06:00.948Z,1023.73
2018-05-06T05:07:00.973Z,1023.75
2018-05-06T05:08:01.003Z,1023.78
2018-05-06T05:09:01.034Z,1023.83
2018-05-06T05:10:01.053Z,1023.89
2018-05-06T05:11:01.081Z,1023.9
2018-05-06T05:12:01.108Z,1023.89
2018-05-06T05:13:01.135Z,1023.93
2018-05-06T05:14:01.163Z,1023.91
2018-05-06T05:15:01.190Z,1023.95
2018-05-06T05:16:01.220Z,1023.91
2018-05-06T05:17:01.247Z,1023.91
2018-05-06T05:18:01.276Z,1023.94
2018-05-06T05:19:01.305Z,1023.96
2018-05-06T05:20:01.338Z,1023.94
2018-05-06T05:21:01.363Z,1024
2018-05-06T05:22:01.399Z,1024.01
2018-05-06T05:23:01.425Z,1024.02
2018-05-06T05:24:01.452Z,1024.01
2018-05-06T05:26:01.521Z,1024.01
2018-05-06T05:27:01.544Z,1024.01
2018-05-06T05:28:01.578Z,1024.02
2018-05-06T05:29:01.605Z,1023.99
2018-05-06T05:30:01.636Z,1024.01
2018-05-06T05:31:01.668Z,1024
2018-05-06T05:32:01.697Z,1023.98
2018-05-06T05:33:01.730Z,1024.02
2018-05-06T05:34:01.762Z,1024.02
2018-05-06T05:35:01.793Z,1024.05
2018-05-06T05:36:01.825Z,1024.07
2018-05-06T05:37:01.857Z,1024.09
2018-05-06T05:38:01.889Z,1024.11
2018-05-06T05:39:01.922Z,1024.1
2018-05-06T05:40:01.955Z,1024.09
2018-05-06T05:42:02.019Z,1024.06
2018-05-06T05:43:02.053Z,1024.04
2018-05-06T05:44:02.085Z,1024.08
2018-05-06T05:45:02.119Z,1024.1
2018-05-06T05:46:02.151Z,1024.1
2018-05-06T05:47:02.183Z,1024.16
2018-05-06T05:48:02.216Z,1024.22
2018-05-06T05:49:02.249Z,1024.29
2018-05-06T05:50:02.281Z,1024.33
2018-05-06T05:51:02.315Z,1024.37
2018-05-06T05:52:02.415Z,1024.38
2018-05-06T05:53:02.382Z,1024.41
2018-05-06T05:54:02.415Z,1024.49
2018-05-06T05:55:02.450Z,1024.55
2018-05-06T05:56:02.483Z,1024.57
2018-05-06T05:58:02.550Z,1024.64
2018-05-06T05:59:02.584Z,1024.65
2018-05-06T06:00:02.621Z,1024.67
2018-05-06T06:01:02.657Z,1024.68
2018-05-06T06:02:02.686Z,1024.68
2018-05-06T06:03:02.722Z,1024.74
2018-05-06T06:04:02.758Z,1024.75
2018-05-06T06:05:02.788Z,1024.76
2018-05-06T06:06:02.822Z,1024.81
2018-05-06T06:07:02.858Z,1024.83
2018-05-06T06:08:02.891Z,1024.8
2018-05-06T06:09:02.930Z,1024.83
2018-05-06T06:10:02.961Z,1024.87
2018-05-06T06:11:02.995Z,1024.9
2018-05-06T06:12:03.029Z,1024.86
2018-05-06T06:14:03.101Z,1024.84
2018-05-06T06:15:03.135Z,1024.8
2018-05-06T06:16:03.173Z,1024.83
2018-05-06T06:17:03.206Z,1024.9
2018-05-06T06:18:03.240Z,1024.94
2018-05-06T06:19:03.275Z,1024.98
2018-05-06T06:20:03.309Z,1024.97
2018-05-06T06:21:03.345Z,1024.99
2018-05-06T06:22:03.380Z,1025.07
2018-05-06T06:23:03.415Z,1025.07
2018-05-06T06:24:03.454Z,1025.13
2018-05-06T06:25:03.493Z,1025.23
2018-05-06T06:26:03.528Z,1025.27
2018-05-06T06:27:03.556Z,1025.33
2018-05-06T06:29:03.632Z,1025.34
2018-05-06T06:30:03.661Z,1025.42
2018-05-06T06:31:03.698Z,1025.41
2018-05-06T06:32:03.734Z,1025.47
2018-05-06T06:33:03.828Z,1025.53
2018-05-06T06:34:03.804Z,1025.56
2018-05-06T06:35:03.841Z,1025.62
2018-05-06T06:36:03.876Z,1025.57
2018-05-06T06:37:03.911Z,1025.63
2018-05-06T06:38:03.955Z,1025.73
2018-05-06T06:39:03.984Z,1025.73
2018-05-06T06:40:04.020Z,1025.75
2018-05-06T06:41:04.055Z,1025.83
2018-05-06T06:42:04.092Z,1025.83
2018-05-06T06:43:04.127Z,1025.84
2018-05-06T06:44:04.163Z,1025.88
2018-05-06T06:45:04.197Z,1025.93
2018-05-06T06:46:04.234Z,1025.96
2018-05-06T06:47:04.270Z,1025.94
2018-05-06T06:48:04.375Z,1025.93
2018-05-06T06:49:04.342Z,1025.94
2018-05-06T06:50:04.378Z,1025.89
2018-05-06T06:51:04.414Z,1025.85
2018-05-06T06:52:04.450Z,1025.82
2018-05-06T06:53:04.486Z,1025.86
2018-05-06T06:54:04.521Z,1025.77
2018-05-06T06:55:04.561Z,1025.72
2018-05-06T06:56:04.594Z,1025.73
2018-05-06T06:57:04.631Z,1025.65
2018-05-06T06:58:04.676Z,1025.5
2018-05-06T06:59:04.701Z,1025.46
2018-05-06T07:01:04.774Z,1025.51
2018-05-06T07:02:04.811Z,1025.28
2018-05-06T07:03:04.846Z,1024.86
2018-05-06T07:04:04.884Z,1024.65
2018-05-06T07:05:04.918Z,1024.6
2018-05-06T07:06:04.959Z,1024.6
2018-05-06T07:07:04.991Z,1024.61
2018-05-06T07:08:05.028Z,1024.62
2018-05-06T07:09:05.065Z,1024.6
2018-05-06T07:10:05.146Z,1024.64
2018-05-06T07:11:05.178Z,1024.65
2018-05-06T07:12:05.172Z,1024.61
2018-05-06T07:13:05.208Z,1024.68
2018-05-06T07:14:05.244Z,1024.71
2018-05-06T07:15:05.282Z,1024.69
2018-05-06T07:17:05.355Z,1024.71
2018-05-06T07:18:05.389Z,1024.73
2018-05-06T07:19:05.425Z,1024.7
2018-05-06T07:20:05.462Z,1024.69
2018-05-06T07:21:05.499Z,1024.64
2018-05-06T07:22:05.532Z,1024.7
2018-05-06T07:23:05.569Z,1024.73
2018-05-06T07:24:05.606Z,1024.68
2018-05-06T07:25:05.640Z,1024.67
2018-05-06T07:26:05.677Z,1024.69
2018-05-06T07:27:05.713Z,1024.81
2018-05-06T07:28:05.755Z,1025.06
2018-05-06T07:29:05.787Z,1025.11
2018-05-06T07:30:05.820Z,1025.05
2018-05-06T07:31:05.856Z,1024.99
2018-05-06T07:33:05.928Z,1025.04
2018-05-06T07:34:05.970Z,1024.98
2018-05-06T07:35:06.004Z,1024.9
2018-05-06T07:36:06.037Z,1024.97
2018-05-06T07:37:06.073Z,1024.91
2018-05-06T07:38:06.109Z,1024.92
2018-05-06T07:39:06.145Z,1024.9
2018-05-06T07:40:06.183Z,1024.9
2018-05-06T07:41:06.218Z,1024.91
2018-05-06T07:42:06.253Z,1024.92
2018-05-06T07:43:06.291Z,1024.89
2018-05-06T07:44:06.326Z,1024.88
2018-05-06T07:45:06.361Z,1024.85
2018-05-06T07:46:06.398Z,1024.84
2018-05-06T07:47:06.433Z,1024.85
2018-05-06T07:49:06.621Z,1024.84
2018-05-06T07:50:06.543Z,1024.82
2018-05-06T07:51:06.579Z,1024.85
2018-05-06T07:52:06.614Z,1024.79
2018-05-06T07:53:06.652Z,1024.78
2018-05-06T07:54:06.685Z,1024.78
2018-05-06T07:55:06.724Z,1024.7
2018-05-06T07:56:06.760Z,1024.77
2018-05-06T07:57:06.797Z,1024.72
2018-05-06T07:58:06.831Z,1024.67
2018-05-06T07:59:06.868Z,1024.75
2018-05-06T08:00:06.903Z,1024.72
2018-05-06T08:01:06.940Z,1024.69
2018-05-06T08:02:06.976Z,1024.72
2018-05-06T08:04:07.048Z,1024.73
2018-05-06T08:05:07.083Z,1024.66
2018-05-06T08:06:07.119Z,1024.67
2018-05-06T08:07:07.155Z,1024.67
2018-05-06T08:08:07.191Z,1024.66
2018-05-06T08:09:07.226Z,1024.66
2018-05-06T08:10:07.263Z,1024.68
2018-05-06T08:11:07.298Z,1024.68
2018-05-06T08:12:07.332Z,1024.64
2018-05-06T08:13:07.369Z,1024.68
2018-05-06T08:14:07.405Z,1024.66
2018-05-06T08:15:07.439Z,1024.61
2018-05-06T08:16:07.475Z,1024.53
2018-05-06T08:17:07.512Z,1024.54
2018-05-06T08:18:07.547Z,1024.6
2018-05-06T08:19:07.584Z,1024.58
2018-05-06T08:20:07.618Z,1024.56
2018-05-06T08:21:07.654Z,1024.67
2018-05-06T08:22:07.690Z,1024.73
2018-05-06T08:23:07.726Z,1024.76
2018-05-06T08:24:07.759Z,1024.75
2018-05-06T08:25:07.797Z,1024.74
2018-05-06T08:26:07.830Z,1024.77
2018-05-06T08:27:07.864Z,1024.79
2018-05-06T08:28:07.901Z,1024.78
2018-05-06T08:29:07.934Z,1024.79
2018-05-06T08:30:07.969Z,1024.8
2018-05-06T08:31:08.058Z,1024.73
2018-05-06T08:32:08.040Z,1024.77
2018-05-06T08:33:08.073Z,1024.71
2018-05-06T08:34:08.107Z,1024.74
2018-05-06T08:36:08.178Z,1024.82
2018-05-06T08:37:08.213Z,1024.82
2018-05-06T08:38:08.248Z,1024.74
2018-05-06T08:39:08.282Z,1024.71
2018-05-06T08:40:08.318Z,1024.65
2018-05-06T08:41:08.352Z,1024.55
2018-05-06T08:42:08.387Z,1024.54
2018-05-06T08:43:08.422Z,1024.43
2018-05-06T08:44:08.460Z,1024.4
2018-05-06T08:45:08.490Z,1024.37
2018-05-06T08:46:08.526Z,1024.33
2018-05-06T08:47:08.560Z,1024.37
2018-05-06T08:48:08.595Z,1024.32
2018-05-06T08:49:08.635Z,1024.32
2018-05-06T08:50:08.665Z,1024.33
2018-05-06T08:52:08.737Z,1024.3
2018-05-06T08:53:08.767Z,1024.27
2018-05-06T08:54:08.801Z,1024.26
2018-05-06T08:55:08.836Z,1024.3
2018-05-06T08:56:08.869Z,1024.27
2018-05-06T08:57:08.903Z,1024.3
2018-05-06T08:58:08.938Z,1024.21
2018-05-06T08:59:08.978Z,1024.25
2018-05-06T09:00:09.015Z,1024.26
2018-05-06T09:01:09.040Z,1024.23
2018-05-06T09:02:09.074Z,1024.21
2018-05-06T09:03:09.109Z,1024.21
2018-05-06T09:04:09.143Z,1024.18
2018-05-06T09:05:09.175Z,1024.16
2018-05-06T09:06:09.210Z,1024.19
2018-05-06T09:08:09.276Z,1024.16
2018-05-06T09:09:09.312Z,1024.19
2018-05-06T09:10:09.346Z,1024.21
2018-05-06T09:11:09.386Z,1024.15
2018-05-06T09:12:09.413Z,1024.1
2018-05-06T09:13:09.446Z,1024.11
2018-05-06T09:14:09.486Z,1024.1
2018-05-06T09:15:09.514Z,1024.08
2018-05-06T09:16:09.547Z,1024.03
2018-05-06T09:17:09.613Z,1024.05
2018-05-06T09:18:09.613Z,1024.09
2018-05-06T09:19:09.648Z,1024.05
2018-05-06T09:20:09.681Z,1024.01
2018-05-06T09:21:09.715Z,1023.99
2018-05-06T09:22:09.748Z,1023.97
2018-05-06T09:24:09.814Z,1023.96
2018-05-06T09:25:09.849Z,1024.02
2018-05-06T09:26:09.879Z,1023.94
2018-05-06T09:27:09.914Z,1024
2018-05-06T09:28:09.947Z,1023.92
2018-05-06T09:29:09.980Z,1023.97
2018-05-06T09:30:10.013Z,1023.96
2018-05-06T09:31:10.046Z,1024.03
2018-05-06T09:32:10.079Z,1023.97
2018-05-06T09:33:10.113Z,1023.98
2018-05-06T09:34:10.144Z,1023.97
2018-05-06T09:35:10.176Z,1024.03
2018-05-06T09:36:10.212Z,1024.02
2018-05-06T09:37:10.242Z,1023.98
2018-05-06T09:39:10.309Z,1023.99
2018-05-06T09:40:10.340Z,1023.98
2018-05-06T09:41:10.374Z,1023.99
2018-05-06T09:42:10.406Z,1023.97
2018-05-06T09:43:10.437Z,1023.96
2018-05-06T09:44:10.470Z,1023.96
2018-05-06T09:45:10.502Z,1023.93
2018-05-06T09:46:10.535Z,1023.95
2018-05-06T09:47:10.565Z,1023.91
2018-05-06T09:48:10.599Z,1023.87
2018-05-06T09:49:10.631Z,1023.95
2018-05-06T09:50:10.663Z,1023.96
2018-05-06T09:51:10.695Z,1023.9
2018-05-06T09:52:10.725Z,1023.85
2018-05-06T09:53:10.757Z,1023.71
2018-05-06T09:54:10.789Z,1023.76
2018-05-06T09:55:10.822Z,1023.77
2018-05-06T09:56:10.851Z,1023.77
2018-05-06T09:57:10.884Z,1023.83
2018-05-06T09:58:10.914Z,1023.76
2018-05-06T09:59:10.945Z,1023.77
2018-05-06T10:00:10.979Z,1023.71
2018-05-06T10:01:11.006Z,1023.7
2018-05-06T10:02:11.037Z,1023.67
2018-05-06T10:03:11.067Z,1023.66
2018-05-06T10:04:11.101Z,1023.7
2018-05-06T10:05:11.135Z,1023.69
2018-05-06T10:06:11.162Z,1023.72
2018-05-06T10:07:11.192Z,1023.72
2018-05-06T10:08:11.247Z,1023.64
2018-05-06T10:09:11.253Z,1023.64
2018-05-06T10:11:11.316Z,1023.65
2018-05-06T10:12:11.348Z,1023.7
2018-05-06T10:13:11.475Z,1023.61
2018-05-06T10:14:11.407Z,1023.57
2018-05-06T10:15:11.441Z,1023.58
2018-05-06T10:16:11.528Z,1023.56
2018-05-06T10:17:11.498Z,1023.54
2018-05-06T10:18:11.529Z,1023.52
2018-05-06T10:19:11.563Z,1023.52
2018-05-06T10:20:11.589Z,1023.45
2018-05-06T10:21:11.620Z,1023.54
2018-05-06T10:22:11.700Z,1023.52
2018-05-06T10:23:11.682Z,1023.56
2018-05-06T10:24:11.710Z,1023.55
2018-05-06T10:25:11.743Z,1023.53
2018-05-06T10:27:11.805Z,1023.49
2018-05-06T10:28:11.887Z,1023.64
2018-05-06T10:29:11.862Z,1023.52
2018-05-06T10:30:11.892Z,1023.48
2018-05-06T10:31:11.923Z,1023.38
2018-05-06T10:32:11.953Z,1023.44
2018-05-06T10:33:11.983Z,1023.41
2018-05-06T10:34:12.013Z,1023.44
2018-05-06T10:35:12.046Z,1023.45
2018-05-06T10:36:12.074Z,1023.43
2018-05-06T10:37:12.109Z,1023.49
2018-05-06T10:38:12.131Z,1023.41
2018-05-06T10:39:12.160Z,1023.39
2018-05-06T10:40:12.190Z,1023.37
2018-05-06T10:41:12.219Z,1023.28
2018-05-06T10:43:12.277Z,1023.25
2018-05-06T10:44:12.412Z,1023.28
2018-05-06T10:45:12.338Z,1023.3
2018-05-06T10:46:12.366Z,1023.21
2018-05-06T10:47:12.482Z,1023.3
2018-05-06T10:48:12.424Z,1023.19
2018-05-06T10:49:12.569Z,1023.18
2018-05-06T10:50:12.483Z,1023.11
2018-05-06T10:51:12.510Z,1023.17
2018-05-06T10:52:12.540Z,1023.06
2018-05-06T10:53:12.567Z,1023.1
2018-05-06T10:54:12.596Z,1023.1
2018-05-06T10:55:12.625Z,1023.05
2018-05-06T10:56:12.653Z,1023.04
2018-05-06T10:57:12.681Z,1023.09
2018-05-06T10:59:12.738Z,1023.09
2018-05-06T11:00:12.766Z,1023.04
2018-05-06T11:01:12.795Z,1023.11
2018-05-06T11:02:12.821Z,1023.04
2018-05-06T11:03:12.850Z,1023.05
2018-05-06T11:04:12.877Z,1022.98
2018-05-06T11:05:12.906Z,1022.97
2018-05-06T11:06:12.935Z,1022.96
2018-05-06T11:07:12.961Z,1022.97
2018-05-06T11:08:12.989Z,1023.01
2018-05-06T11:09:13.017Z,1022.97
2018-05-06T11:10:13.240Z,1023.05
2018-05-06T11:11:13.073Z,1022.94
2018-05-06T11:12:13.101Z,1022.97
2018-05-06T11:14:13.157Z,1022.97
2018-05-06T11:15:13.183Z,1023.01
2018-05-06T11:16:13.211Z,1022.98
2018-05-06T11:17:13.238Z,1022.94
2018-05-06T11:18:13.266Z,1022.91
2018-05-06T11:19:13.294Z,1022.96
2018-05-06T11:20:13.323Z,1022.92
2018-05-06T11:21:13.348Z,1022.94
2018-05-06T11:22:13.375Z,1022.89
2018-05-06T11:23:13.403Z,1022.89
2018-05-06T11:24:13.429Z,1022.85
2018-05-06T11:25:13.457Z,1022.85
2018-05-06T11:26:13.566Z,1022.94
2018-05-06T11:27:13.510Z,1022.85
2018-05-06T11:28:13.537Z,1022.91
2018-05-06T11:29:13.568Z,1022.84
2018-05-06T11:30:13.592Z,1022.85
2018-05-06T11:31:13.625Z,1022.86
2018-05-06T11:32:13.646Z,1022.89
2018-05-06T11:33:13.672Z,1022.9
2018-05-06T11:34:13.699Z,1022.88
2018-05-06T11:35:13.726Z,1022.8
2018-05-06T11:36:13.755Z,1022.83
2018-05-06T11:37:13.781Z,1022.84
2018-05-06T11:38:13.811Z,1022.82
2018-05-06T11:39:13.836Z,1022.89
2018-05-06T11:40:13.862Z,1022.83
2018-05-06T11:41:13.887Z,1022.89
2018-05-06T11:42:13.915Z,1022.82
2018-05-06T11:43:13.942Z,1022.85
2018-05-06T11:44:13.967Z,1022.76
2018-05-06T11:46:14.029Z,1022.8
2018-05-06T11:47:14.050Z,1022.83
2018-05-06T11:48:14.076Z,1022.83
2018-05-06T11:49:14.105Z,1022.84
2018-05-06T11:50:14.129Z,1022.84
2018-05-06T11:51:14.157Z,1022.79
2018-05-06T11:52:14.183Z,1022.75
2018-05-06T11:53:14.209Z,1022.81
2018-05-06T11:54:14.237Z,1022.72
2018-05-06T11:55:14.262Z,1022.75
2018-05-06T11:56:14.331Z,1022.69
2018-05-06T11:57:14.317Z,1022.72
2018-05-06T11:58:14.343Z,1022.73
2018-05-06T11:59:14.370Z,1022.68
2018-05-06T12:00:14.404Z,1022.62
2018-05-06T12:02:14.456Z,1022.66
2018-05-06T12:03:14.478Z,1022.62
2018-05-06T12:04:14.503Z,1022.6
2018-05-06T12:05:14.530Z,1022.58
2018-05-06T12:06:14.558Z,1022.54
2018-05-06T12:07:14.584Z,1022.53
2018-05-06T12:08:14.611Z,1022.56
2018-05-06T12:09:14.638Z,1022.54
2018-05-06T12:10:14.663Z,1022.47
2018-05-06T12:11:14.691Z,1022.48
2018-05-06T12:12:14.717Z,1022.47
2018-05-06T12:13:14.744Z,1022.49
2018-05-06T12:14:14.770Z,1022.55
2018-05-06T12:15:14.797Z,1022.51
2018-05-06T12:16:14.824Z,1022.53
2018-05-06T12:18:14.876Z,1022.56
2018-05-06T12:19:14.904Z,1022.48
2018-05-06T12:20:14.930Z,1022.49
2018-05-06T12:21:14.956Z,1022.43
2018-05-06T12:22:14.982Z,1022.45
2018-05-06T12:23:15.009Z,1022.42
2018-05-06T12:24:15.037Z,1022.39
2018-05-06T12:25:15.061Z,1022.35
2018-05-06T12:26:15.089Z,1022.36
2018-05-06T12:27:15.116Z,1022.35
2018-05-06T12:28:15.143Z,1022.25
2018-05-06T12:29:15.170Z,1022.35
2018-05-06T12:30:15.193Z,1022.29
2018-05-06T12:31:15.222Z,1022.26
2018-05-06T12:32:15.247Z,1022.23
2018-05-06T12:34:15.299Z,1022.37
2018-05-06T12:35:15.331Z,1022.34
2018-05-06T12:36:15.353Z,1022.26
2018-05-06T12:37:15.379Z,1022.3
2018-05-06T12:38:15.406Z,1022.28
2018-05-06T12:39:15.431Z,1022.3
2018-05-06T12:40:15.457Z,1022.33
2018-05-06T12:41:15.485Z,1022.25
2018-05-06T12:42:15.511Z,1022.23
2018-05-06T12:43:15.611Z,1022.21
2018-05-06T12:44:15.564Z,1022.16
2018-05-06T12:45:15.590Z,1022.15
2018-05-06T12:46:15.618Z,1022.13
2018-05-06T12:47:15.643Z,1022.08
2018-05-06T12:49:15.697Z,1022.06
2018-05-06T12:50:15.722Z,1022.03